createdAt,value
2022-08-07T00:00:45.126Z,0.00
2022-08-07T00:02:36.756Z,0.00
2022-08-07T00:02:46.141Z,0.00
2022-08-07T00:03:47.437Z,0.00
2022-08-07T00:04:45.360Z,0.00
2022-08-07T00:05:45.075Z,0.00
2022-08-07T00:06:51.797Z,0.00
2022-08-07T00:07:45.055Z,0.00
2022-08-07T00:08:46.067Z,0.00
2022-08-07T00:10:04.718Z,0.00
2022-08-07T00:10:57.479Z,0.00
2022-08-07T00:11:53.920Z,0.00
2022-08-07T00:12:59.882Z,0.00
2022-08-07T00:13:45.081Z,0.00
2022-08-07T00:14:44.980Z,0.00
2022-08-07T00:15:46.733Z,0.00
2022-08-07T00:16:44.981Z,0.00
2022-08-07T00:17:44.962Z,0.00
2022-08-07T00:18:44.945Z,0.00
2022-08-07T00:20:01.578Z,0.00
2022-08-07T00:20:45.944Z,0.00
2022-08-07T00:21:56.887Z,0.00
2022-08-07T00:22:51.735Z,0.00
2022-08-07T00:23:44.894Z,0.00
2022-08-07T00:24:44.883Z,0.00
2022-08-07T00:25:59.236Z,0.00
2022-08-07T00:26:58.461Z,0.00
2022-08-07T00:27:52.284Z,0.00
2022-08-07T00:28:46.158Z,0.00
2022-08-07T00:29:44.823Z,0.00
2022-08-07T00:30:44.815Z,0.00
2022-08-07T00:31:44.933Z,0.00
2022-08-07T00:32:44.795Z,0.00
2022-08-07T00:33:47.557Z,0.00
2022-08-07T00:34:44.779Z,0.00
2022-08-07T00:35:49.689Z,0.00
2022-08-07T00:36:44.748Z,0.00
2022-08-07T00:37:48.418Z,0.00
2022-08-07T00:38:44.734Z,0.00
2022-08-07T00:39:44.932Z,0.00
2022-08-07T00:40:47.728Z,0.00
2022-08-07T00:41:45.326Z,0.00
2022-08-07T00:42:45.689Z,0.00
2022-08-07T00:44:00.977Z,0.00
2022-08-07T00:44:45.668Z,0.00
2022-08-07T00:45:46.440Z,0.00
2022-08-07T00:46:44.672Z,0.00
2022-08-07T00:48:09.838Z,0.00
2022-08-07T00:48:45.631Z,0.00
2022-08-07T00:50:21.414Z,0.00
2022-08-07T00:50:50.900Z,0.00
2022-08-07T00:51:58.292Z,0.00
2022-08-07T00:52:47.448Z,0.00
2022-08-07T00:53:50.032Z,0.00
2022-08-07T00:54:44.573Z,0.00
2022-08-07T00:56:02.170Z,0.00
2022-08-07T00:56:44.552Z,0.00
2022-08-07T00:57:56.066Z,0.00
2022-08-07T00:58:47.066Z,0.00
2022-08-07T00:59:44.515Z,0.00
2022-08-07T01:00:53.684Z,0.00
2022-08-07T01:01:44.935Z,0.00
2022-08-07T01:02:44.535Z,0.00
2022-08-07T01:03:55.449Z,0.00
2022-08-07T01:04:45.465Z,0.00
2022-08-07T01:05:51.615Z,0.00
2022-08-07T01:06:44.448Z,0.00
2022-08-07T01:07:44.443Z,0.00
2022-08-07T01:08:53.305Z,0.00
2022-08-07T01:10:06.280Z,0.00
2022-08-07T01:10:56.339Z,0.00
2022-08-07T01:12:23.929Z,0.00
2022-08-07T01:12:54.161Z,0.00
2022-08-07T01:13:55.589Z,0.00
2022-08-07T01:14:44.985Z,0.00
2022-08-07T01:16:01.251Z,0.00
2022-08-07T01:16:47.311Z,0.00
2022-08-07T01:17:44.327Z,0.00
2022-08-07T01:18:44.322Z,0.00
2022-08-07T01:19:52.435Z,0.00
2022-08-07T01:20:44.310Z,0.00
2022-08-07T01:21:44.284Z,0.00
2022-08-07T01:22:46.857Z,0.00
2022-08-07T01:23:46.650Z,0.00
2022-08-07T01:24:44.248Z,0.00
2022-08-07T01:25:55.411Z,0.00
2022-08-07T01:26:44.253Z,0.00
2022-08-07T01:27:51.366Z,0.00
2022-08-07T01:28:46.266Z,0.00
2022-08-07T01:29:44.216Z,0.00
2022-08-07T01:30:44.211Z,0.00
2022-08-07T01:31:48.589Z,0.00
2022-08-07T01:32:44.224Z,0.00
2022-08-07T01:33:55.031Z,0.00
2022-08-07T01:34:44.155Z,0.00
2022-08-07T01:35:54.213Z,0.00
2022-08-07T01:36:45.124Z,0.00
2022-08-07T01:37:44.115Z,0.00
2022-08-07T01:38:44.114Z,0.00
2022-08-07T01:39:46.734Z,0.00
2022-08-07T01:40:47.077Z,0.00
2022-08-07T01:42:06.116Z,0.00
2022-08-07T01:42:57.230Z,0.00
2022-08-07T01:43:44.067Z,0.00
2022-08-07T01:44:44.044Z,0.00
2022-08-07T01:45:46.577Z,0.00
2022-08-07T01:46:44.037Z,0.00
2022-08-07T01:48:18.300Z,0.00
2022-08-07T01:48:46.624Z,0.00
2022-08-07T01:49:44.948Z,0.00
2022-08-07T01:50:43.979Z,0.00
2022-08-07T01:52:03.652Z,0.00
2022-08-07T01:52:49.654Z,0.00
2022-08-07T01:54:09.297Z,0.00
2022-08-07T01:54:44.939Z,0.00
2022-08-07T01:55:46.941Z,0.00
2022-08-07T01:56:46.260Z,0.00
2022-08-07T01:58:06.005Z,0.00
2022-08-07T01:58:45.360Z,0.00
2022-08-07T01:59:44.139Z,0.00
2022-08-07T02:00:49.036Z,0.00
2022-08-07T02:02:01.915Z,0.00
2022-08-07T02:03:18.523Z,0.00
2022-08-07T02:03:49.062Z,0.00
2022-08-07T02:04:52.371Z,0.00
2022-08-07T02:05:53.693Z,0.00
2022-08-07T02:06:44.823Z,0.00
2022-08-07T02:07:50.175Z,0.00
2022-08-07T02:08:43.794Z,0.00
2022-08-07T02:09:52.945Z,0.00
2022-08-07T02:10:48.713Z,0.00
2022-08-07T02:12:03.459Z,0.00
2022-08-07T02:12:46.412Z,0.00
2022-08-07T02:13:58.217Z,0.00
2022-08-07T02:14:43.735Z,0.00
2022-08-07T02:15:43.723Z,0.00
2022-08-07T02:16:43.709Z,0.00
2022-08-07T02:17:49.427Z,0.00
2022-08-07T02:18:46.811Z,0.00
2022-08-07T02:20:04.212Z,0.00
2022-08-07T02:20:48.640Z,0.00
2022-08-07T02:21:55.232Z,0.00
2022-08-07T02:22:43.976Z,0.00
2022-08-07T02:23:44.818Z,0.00
2022-08-07T02:24:44.558Z,0.00
2022-08-07T02:26:30.864Z,0.00
2022-08-07T02:26:44.621Z,0.00
2022-08-07T02:27:43.595Z,0.00
2022-08-07T02:28:43.599Z,0.00
2022-08-07T02:29:53.949Z,0.00
2022-08-07T02:30:46.607Z,0.00
2022-08-07T02:31:43.560Z,0.00
2022-08-07T02:33:00.387Z,0.00
2022-08-07T02:34:03.931Z,0.00
2022-08-07T02:34:44.532Z,0.00
2022-08-07T02:36:28.644Z,0.00
2022-08-07T02:36:50.102Z,0.00
2022-08-07T02:37:44.027Z,0.00
2022-08-07T02:38:50.698Z,0.00
2022-08-07T02:40:02.324Z,0.00
2022-08-07T02:40:48.299Z,0.00
2022-08-07T02:41:50.638Z,0.00
2022-08-07T02:42:43.443Z,0.00
2022-08-07T02:43:43.436Z,0.00
2022-08-07T02:44:45.847Z,0.00
2022-08-07T02:46:00.937Z,0.00
2022-08-07T02:46:46.842Z,0.00
2022-08-07T02:47:45.472Z,0.00
2022-08-07T02:48:54.693Z,0.00
2022-08-07T02:49:58.201Z,0.00
2022-08-07T02:50:43.365Z,0.00
2022-08-07T02:51:51.860Z,0.00
2022-08-07T02:52:44.128Z,0.00
2022-08-07T02:53:43.369Z,0.00
2022-08-07T02:54:43.327Z,0.00
2022-08-07T02:56:04.416Z,0.00
2022-08-07T02:56:44.310Z,0.00
2022-08-07T02:57:43.290Z,0.00
2022-08-07T02:58:47.452Z,0.00
2022-08-07T02:59:43.279Z,0.00
2022-08-07T03:00:46.758Z,0.00
2022-08-07T03:01:47.211Z,0.00
2022-08-07T03:02:54.242Z,0.00
2022-08-07T03:03:50.116Z,0.00
2022-08-07T03:04:43.221Z,0.00
2022-08-07T03:05:43.213Z,0.00
2022-08-07T03:06:44.583Z,0.00
2022-08-07T03:08:07.748Z,0.00
2022-08-07T03:08:44.173Z,0.00
2022-08-07T03:09:47.209Z,0.00
2022-08-07T03:10:47.143Z,0.00
2022-08-07T03:11:52.390Z,0.00
2022-08-07T03:12:43.129Z,0.00
2022-08-07T03:13:50.014Z,0.00
2022-08-07T03:14:43.115Z,0.00
2022-08-07T03:15:48.001Z,0.00
2022-08-07T03:16:44.085Z,0.00
2022-08-07T03:17:53.991Z,0.00
2022-08-07T03:18:44.123Z,0.00
2022-08-07T03:19:43.078Z,0.00
2022-08-07T03:20:43.051Z,0.00
2022-08-07T03:21:50.363Z,0.00
2022-08-07T03:22:43.025Z,0.00
2022-08-07T03:24:19.501Z,0.00
2022-08-07T03:24:44.070Z,0.00
2022-08-07T03:25:45.999Z,0.00
2022-08-07T03:26:57.930Z,0.00
2022-08-07T03:27:59.191Z,0.00
2022-08-07T03:28:44.429Z,0.00
2022-08-07T03:29:44.590Z,0.00
2022-08-07T03:30:42.950Z,0.00
2022-08-07T03:31:46.435Z,0.00
2022-08-07T03:32:49.021Z,0.00
2022-08-07T03:33:43.911Z,0.00
2022-08-07T03:34:47.155Z,1.00
2022-08-07T03:35:50.392Z,1.00
2022-08-07T03:36:42.879Z,0.00
2022-08-07T03:37:46.362Z,0.00
2022-08-07T03:38:42.866Z,0.00
2022-08-07T03:39:59.740Z,0.00
2022-08-07T03:40:46.906Z,0.00
2022-08-07T03:41:47.541Z,0.00
2022-08-07T03:42:42.822Z,0.00
2022-08-07T03:43:44.020Z,0.00
2022-08-07T03:44:42.763Z,2.00
2022-08-07T03:45:43.694Z,1.00
2022-08-07T03:47:11.274Z,4.00
2022-08-07T03:47:48.007Z,1.00
2022-08-07T03:48:45.316Z,2.00
2022-08-07T03:49:47.951Z,2.00
2022-08-07T03:50:43.063Z,2.00
2022-08-07T03:51:47.181Z,3.00
2022-08-07T03:52:42.656Z,4.00
2022-08-07T03:54:05.597Z,4.00
2022-08-07T03:54:55.230Z,5.00
2022-08-07T03:55:58.208Z,6.00
2022-08-07T03:57:03.967Z,7.00
2022-08-07T03:58:08.740Z,8.00
2022-08-07T03:59:08.664Z,10.00
2022-08-07T03:59:46.593Z,10.00
2022-08-07T04:00:46.538Z,14.00
2022-08-07T04:01:43.124Z,18.00
2022-08-07T04:02:42.559Z,21.00
2022-08-07T04:03:49.895Z,30.00
2022-08-07T04:04:42.535Z,31.00
2022-08-07T04:05:45.507Z,36.00
2022-08-07T04:06:42.517Z,45.00
2022-08-07T04:07:45.309Z,53.00
2022-08-07T04:08:42.491Z,59.00
2022-08-07T04:09:45.160Z,63.00
2022-08-07T04:10:54.501Z,78.00
2022-08-07T04:12:25.416Z,82.00
2022-08-07T04:12:43.465Z,88.00
2022-08-07T04:14:09.915Z,94.00
2022-08-07T04:14:46.259Z,105.00
2022-08-07T04:15:42.415Z,111.00
2022-08-07T04:16:43.044Z,115.00
2022-08-07T04:18:58.262Z,127.00
2022-08-07T04:18:59.316Z,136.00
2022-08-07T04:19:52.114Z,144.00
2022-08-07T04:20:54.386Z,154.00
2022-08-07T04:21:59.538Z,167.00
2022-08-07T04:22:53.698Z,182.00
2022-08-07T04:24:03.736Z,192.00
2022-08-07T04:24:43.336Z,201.00
2022-08-07T04:25:45.346Z,212.00
2022-08-07T04:26:43.664Z,226.00
2022-08-07T04:27:46.095Z,255.00
2022-08-07T04:28:43.286Z,277.00
2022-08-07T04:29:58.952Z,295.00
2022-08-07T04:30:43.927Z,318.00
2022-08-07T04:32:02.926Z,340.00
2022-08-07T04:32:44.634Z,347.00
2022-08-07T04:33:43.229Z,364.00
2022-08-07T04:34:43.250Z,386.00
2022-08-07T04:35:42.222Z,402.00
2022-08-07T04:36:42.208Z,414.00
2022-08-07T04:38:03.202Z,425.00
2022-08-07T04:38:43.178Z,460.00
2022-08-07T04:39:47.993Z,466.00
2022-08-07T04:40:52.945Z,485.00
2022-08-07T04:41:48.263Z,484.00
2022-08-07T04:42:42.153Z,528.00
2022-08-07T04:44:12.106Z,542.00
2022-08-07T04:44:54.561Z,652.00
2022-08-07T04:46:00.613Z,691.00
2022-08-07T04:47:04.349Z,654.00
2022-08-07T04:48:00.742Z,678.00
2022-08-07T04:48:44.594Z,723.00
2022-08-07T04:49:42.062Z,748.00
2022-08-07T04:50:43.072Z,768.00
2022-08-07T04:51:42.042Z,809.00
2022-08-07T04:52:46.801Z,851.00
2022-08-07T04:54:01.661Z,863.00
2022-08-07T04:54:43.015Z,910.00
2022-08-07T04:58:12.162Z,1076.00
2022-08-07T04:58:13.820Z,1015.00
2022-08-07T04:58:15.262Z,964.00
2022-08-07T05:00:11.956Z,1152.00
2022-08-07T05:00:43.072Z,1249.00
2022-08-07T05:01:41.980Z,1329.00
2022-08-07T05:02:42.817Z,1398.00
2022-08-07T05:04:07.160Z,1439.00
2022-08-07T05:04:43.951Z,1444.00
2022-08-07T05:05:52.651Z,1435.00
2022-08-07T05:06:43.078Z,1426.00
2022-08-07T05:07:48.374Z,1449.00
2022-08-07T05:08:59.307Z,1468.00
2022-08-07T05:09:45.823Z,1550.00
2022-08-07T05:10:44.850Z,1703.00
2022-08-07T05:11:56.993Z,1591.00
2022-08-07T05:12:51.416Z,1591.00
2022-08-07T05:14:52.590Z,1717.00
2022-08-07T05:14:54.220Z,1601.00
2022-08-07T05:15:42.800Z,1839.00
2022-08-07T05:16:43.802Z,1821.00
2022-08-07T05:17:51.929Z,1918.00
2022-08-07T05:18:41.762Z,1956.00
2022-08-07T05:19:45.242Z,1923.00
2022-08-07T05:20:42.756Z,1974.00
2022-08-07T05:21:59.962Z,1921.00
2022-08-07T05:22:42.724Z,1941.00
2022-08-07T05:23:41.714Z,2018.00
2022-08-07T05:24:41.754Z,1958.00
2022-08-07T05:26:11.897Z,1881.00
2022-08-07T05:26:42.705Z,1825.00
2022-08-07T05:28:16.140Z,1792.00
2022-08-07T05:28:48.556Z,1832.00
2022-08-07T05:29:50.959Z,1880.00
2022-08-07T05:30:41.679Z,1904.00
2022-08-07T05:31:41.629Z,1843.00
2022-08-07T05:32:41.618Z,1859.00
2022-08-07T05:33:41.606Z,1920.00
2022-08-07T05:34:42.650Z,1943.00
2022-08-07T05:35:42.368Z,1987.00
2022-08-07T05:36:41.586Z,1984.00
2022-08-07T05:37:42.337Z,2001.00
2022-08-07T05:39:00.332Z,2105.00
2022-08-07T05:40:13.513Z,2135.00
2022-08-07T05:40:50.399Z,2260.00
2022-08-07T05:42:01.446Z,2315.00
2022-08-07T05:42:42.520Z,2282.00
2022-08-07T05:43:49.632Z,2263.00
2022-08-07T05:44:52.752Z,2226.00
2022-08-07T05:45:47.690Z,2211.00
2022-08-07T05:46:41.492Z,2240.00
2022-08-07T05:48:02.176Z,2423.00
2022-08-07T05:48:58.162Z,2562.00
2022-08-07T05:49:42.443Z,2667.00
2022-08-07T05:50:42.949Z,2947.00
2022-08-07T05:51:42.373Z,2978.00
2022-08-07T05:52:41.425Z,3038.00
2022-08-07T05:54:13.457Z,2994.00
2022-08-07T05:54:53.244Z,3189.00
2022-08-07T05:56:01.822Z,3319.00
2022-08-07T05:56:42.425Z,3233.00
2022-08-07T05:57:41.936Z,3416.00
2022-08-07T05:58:41.352Z,3737.00
2022-08-07T05:59:55.843Z,3847.00
2022-08-07T06:00:42.329Z,4035.00
2022-08-07T06:01:41.366Z,4235.00
2022-08-07T06:02:41.730Z,4323.00
2022-08-07T06:03:53.590Z,4527.00
2022-08-07T06:04:42.283Z,5295.00
2022-08-07T06:05:41.276Z,5428.00
2022-08-07T06:06:46.228Z,5425.00
2022-08-07T06:08:14.171Z,5349.00
2022-08-07T06:08:42.676Z,5132.00
2022-08-07T06:10:04.421Z,5277.00
2022-08-07T06:10:45.221Z,5373.00
2022-08-07T06:11:41.236Z,5912.00
2022-08-07T06:12:41.228Z,5762.00
2022-08-07T06:14:11.645Z,5704.00
2022-08-07T06:14:42.197Z,5853.00
2022-08-07T06:15:42.357Z,6163.00
2022-08-07T06:16:41.167Z,6140.00
2022-08-07T06:17:41.365Z,6078.00
2022-08-07T06:18:41.140Z,6243.00
2022-08-07T06:19:52.318Z,6253.00
2022-08-07T06:20:50.941Z,6225.00
2022-08-07T06:22:14.426Z,6187.00
2022-08-07T06:22:42.138Z,6194.00
2022-08-07T06:24:37.300Z,6472.00
2022-08-07T06:24:56.985Z,6739.00
2022-08-07T06:25:54.323Z,6885.00
2022-08-07T06:26:41.072Z,7006.00
2022-08-07T06:27:59.890Z,7023.00
2022-08-07T06:28:42.033Z,7255.00
2022-08-07T06:29:41.033Z,7214.00
2022-08-07T06:30:45.379Z,7129.00
2022-08-07T06:31:49.754Z,6969.00
2022-08-07T06:32:41.003Z,7031.00
2022-08-07T06:33:41.006Z,7102.00
2022-08-07T06:34:40.973Z,7149.00
2022-08-07T06:35:48.025Z,7139.00
2022-08-07T06:36:41.944Z,7277.00
2022-08-07T06:37:44.150Z,7485.00
2022-08-07T06:38:51.281Z,7532.00
2022-08-07T06:40:18.023Z,7610.00
2022-08-07T06:40:45.907Z,7614.00
2022-08-07T06:42:01.094Z,7362.00
2022-08-07T06:42:41.887Z,7366.00
2022-08-07T06:43:46.372Z,7600.00
2022-08-07T06:44:41.867Z,7375.00
2022-08-07T06:45:40.866Z,7304.00
2022-08-07T06:46:40.849Z,7431.00
2022-08-07T06:47:48.064Z,7605.00
2022-08-07T06:48:44.689Z,7765.00
2022-08-07T06:49:51.721Z,7780.00
2022-08-07T06:50:43.110Z,7918.00
2022-08-07T06:51:49.713Z,8380.00
2022-08-07T06:52:40.823Z,8447.00
2022-08-07T06:55:27.295Z,8561.00
2022-08-07T06:55:33.951Z,8471.00
2022-08-07T06:55:48.011Z,7923.00
2022-08-07T06:56:49.367Z,7525.00
2022-08-07T06:57:48.368Z,7689.00
2022-08-07T07:00:12.995Z,4474.00
2022-08-07T07:00:13.123Z,8933.00
2022-08-07T07:00:42.456Z,10800.00
2022-08-07T07:01:43.902Z,10664.00
2022-08-07T07:02:48.351Z,12004.00
2022-08-07T07:03:49.374Z,14058.00
2022-08-07T07:04:43.542Z,10462.00
2022-08-07T07:06:02.532Z,14993.00
2022-08-07T07:07:00.158Z,11773.00
2022-08-07T07:07:59.623Z,13753.00
2022-08-07T07:08:46.424Z,10134.00
2022-08-07T07:09:40.615Z,9064.00
2022-08-07T07:10:54.640Z,9737.00
2022-08-07T07:12:08.622Z,10129.00
2022-08-07T07:12:41.849Z,12271.00
2022-08-07T07:13:57.808Z,9681.00
2022-08-07T07:14:41.558Z,10035.00
2022-08-07T07:15:40.597Z,11674.00
2022-08-07T07:16:49.595Z,11038.00
2022-08-07T07:17:45.461Z,9371.00
2022-08-07T07:18:48.100Z,8082.00
2022-08-07T07:19:57.522Z,7508.00
2022-08-07T07:20:41.496Z,7150.00
2022-08-07T07:22:04.999Z,6868.00
2022-08-07T07:24:08.229Z,6590.00
2022-08-07T07:24:09.176Z,6560.00
2022-08-07T07:24:43.211Z,6481.00
2022-08-07T07:26:32.211Z,6360.00
2022-08-07T07:26:41.456Z,6343.00
2022-08-07T07:27:56.340Z,6352.00
2022-08-07T07:28:48.356Z,6375.00
2022-08-07T07:30:07.540Z,7138.00
2022-08-07T07:30:41.494Z,7198.00
2022-08-07T07:31:44.619Z,7396.00
2022-08-07T07:32:40.421Z,7381.00
2022-08-07T07:33:40.366Z,7397.00
2022-08-07T07:34:41.354Z,7405.00
2022-08-07T07:35:54.368Z,7860.00
2022-08-07T07:36:41.326Z,7658.00
2022-08-07T07:37:47.377Z,7447.00
2022-08-07T07:38:41.318Z,7513.00
2022-08-07T07:39:52.519Z,7683.00
2022-08-07T07:40:43.304Z,7591.00
2022-08-07T07:41:50.736Z,7354.00
2022-08-07T07:42:41.268Z,7283.00
2022-08-07T07:44:14.177Z,8372.00
2022-08-07T07:44:41.249Z,8877.00
2022-08-07T07:46:50.475Z,9482.00
2022-08-07T07:46:56.017Z,9809.00
2022-08-07T07:47:42.717Z,10515.00
2022-08-07T07:48:40.213Z,10717.00
2022-08-07T07:50:36.105Z,10399.00
2022-08-07T07:50:41.227Z,9720.00
2022-08-07T07:51:57.441Z,10635.00
2022-08-07T07:52:41.170Z,11055.00
2022-08-07T07:53:52.035Z,11479.00
2022-08-07T07:54:40.150Z,9254.00
2022-08-07T07:55:45.643Z,18374.00
2022-08-07T07:56:40.181Z,15888.00
2022-08-07T07:57:50.424Z,17022.00
2022-08-07T07:58:40.828Z,14878.00
2022-08-07T07:59:52.293Z,14686.00
2022-08-07T08:00:40.131Z,13490.00
2022-08-07T08:02:02.576Z,14074.00
2022-08-07T08:03:05.704Z,14535.00
2022-08-07T08:04:06.020Z,14485.00
2022-08-07T08:04:41.068Z,12811.00
2022-08-07T08:05:50.760Z,13602.00
2022-08-07T08:06:51.997Z,14847.00
2022-08-07T08:07:42.461Z,13593.00
2022-08-07T08:08:41.949Z,13005.00
2022-08-07T08:09:52.141Z,14420.00
2022-08-07T08:10:42.985Z,15145.00
2022-08-07T08:11:47.289Z,14584.00
2022-08-07T08:12:52.696Z,13386.00
2022-08-07T08:13:53.951Z,22044.00
2022-08-07T08:14:39.948Z,16626.00
2022-08-07T08:15:58.019Z,12281.00
2022-08-07T08:16:40.928Z,14827.00
2022-08-07T08:17:57.894Z,21654.00
2022-08-07T08:18:40.911Z,15334.00
2022-08-07T08:20:17.400Z,15606.00
2022-08-07T08:20:40.891Z,14441.00
2022-08-07T08:22:00.545Z,14622.00
2022-08-07T08:22:54.266Z,21092.00
2022-08-07T08:23:40.852Z,12437.00
2022-08-07T08:24:45.305Z,29179.00
2022-08-07T08:25:49.273Z,19934.00
2022-08-07T08:26:39.831Z,28668.00
2022-08-07T08:27:39.809Z,9022.00
2022-08-07T08:28:45.126Z,28599.00
2022-08-07T08:29:54.130Z,14410.00
2022-08-07T08:30:42.896Z,28450.00
2022-08-07T08:31:58.750Z,22034.00
2022-08-07T08:32:41.348Z,12549.00
2022-08-07T08:33:39.764Z,66962.00
2022-08-07T08:35:47.068Z,18299.00
2022-08-07T08:36:39.723Z,18580.00
2022-08-07T08:38:01.604Z,15972.00
2022-08-07T08:38:41.341Z,22541.00
2022-08-07T08:39:54.626Z,22419.00
2022-08-07T08:40:43.906Z,17765.00
2022-08-07T08:41:57.469Z,21847.00
2022-08-07T08:42:40.655Z,31582.00
2022-08-07T08:43:42.157Z,24555.00
2022-08-07T08:44:45.707Z,8329.00
2022-08-07T08:45:41.897Z,69294.00
2022-08-07T08:46:40.617Z,19496.00
2022-08-07T08:47:52.890Z,27649.00
2022-08-07T08:48:39.598Z,24843.00
2022-08-07T08:49:57.179Z,26621.00
2022-08-07T08:50:40.573Z,21524.00
2022-08-07T08:51:49.633Z,21585.00
2022-08-07T08:52:40.818Z,16507.00
2022-08-07T08:53:39.538Z,21903.00
2022-08-07T08:54:39.531Z,17274.00
2022-08-07T08:55:55.379Z,15176.00
2022-08-07T08:56:39.521Z,17385.00
2022-08-07T08:57:39.505Z,18780.00
2022-08-07T08:58:39.483Z,20276.00
2022-08-07T08:59:41.967Z,17777.00
2022-08-07T09:00:42.682Z,18507.00
2022-08-07T09:01:40.166Z,18385.00
2022-08-07T09:02:39.541Z,19293.00
2022-08-07T09:03:49.379Z,16888.00
2022-08-07T09:04:39.426Z,16061.00
2022-08-07T09:05:39.424Z,15661.00
2022-08-07T09:06:40.370Z,13145.00
2022-08-07T09:07:46.297Z,12478.00
2022-08-07T09:08:40.378Z,14394.00
2022-08-07T09:09:39.375Z,16060.00
2022-08-07T09:10:44.242Z,15134.00
2022-08-07T09:11:51.238Z,14122.00
2022-08-07T09:12:39.378Z,14298.00
2022-08-07T09:13:40.327Z,14061.00
2022-08-07T09:14:39.321Z,13580.00
2022-08-07T09:16:22.439Z,12664.00
2022-08-07T09:16:40.307Z,12004.00
2022-08-07T09:18:00.365Z,12564.00
2022-08-07T09:18:40.299Z,12574.00
2022-08-07T09:19:52.015Z,12380.00
2022-08-07T09:20:39.259Z,14768.00
2022-08-07T09:22:09.849Z,15442.00
2022-08-07T09:24:30.449Z,13713.00
2022-08-07T09:24:33.734Z,14337.00
2022-08-07T09:24:59.367Z,13943.00
2022-08-07T09:25:43.200Z,13768.00
2022-08-07T09:26:39.212Z,15592.00
2022-08-07T09:27:59.590Z,16795.00
2022-08-07T09:30:04.150Z,15622.00
2022-08-07T09:30:06.238Z,15420.00
2022-08-07T09:30:40.351Z,16219.00
2022-08-07T09:31:39.133Z,17514.00
2022-08-07T09:32:39.134Z,20392.00
2022-08-07T09:33:53.075Z,19566.00
2022-08-07T09:34:40.114Z,18759.00
2022-08-07T09:36:03.326Z,17372.00
2022-08-07T09:36:42.950Z,17828.00
2022-08-07T09:37:48.162Z,18009.00
2022-08-07T09:38:39.078Z,19084.00
2022-08-07T09:39:53.669Z,18789.00
2022-08-07T09:40:43.048Z,18305.00
2022-08-07T09:41:43.143Z,18356.00
2022-08-07T09:42:40.027Z,17715.00
2022-08-07T09:44:03.392Z,17345.00
2022-08-07T09:45:40.039Z,15872.00
2022-08-07T09:47:37.226Z,16416.00
2022-08-07T09:47:52.426Z,15913.00
2022-08-07T09:47:59.425Z,16265.00
2022-08-07T09:48:50.178Z,16821.00
2022-08-07T09:50:02.104Z,17410.00
2022-08-07T09:50:40.100Z,17597.00
2022-08-07T09:52:10.079Z,18815.00
2022-08-07T09:52:39.942Z,21168.00
2022-08-07T09:53:41.145Z,19726.00
2022-08-07T09:54:39.901Z,19717.00
2022-08-07T09:56:04.587Z,18754.00
2022-08-07T09:56:41.783Z,19380.00
2022-08-07T09:57:46.908Z,26371.00
2022-08-07T09:58:42.282Z,24090.00
2022-08-07T09:59:46.314Z,22798.00
2022-08-07T10:00:39.857Z,22079.00
2022-08-07T10:01:51.440Z,22427.00
2022-08-07T10:02:38.826Z,25604.00
2022-08-07T10:04:05.964Z,23733.00
2022-08-07T10:04:46.198Z,22861.00
2022-08-07T10:06:02.767Z,22596.00
2022-08-07T10:06:39.789Z,23052.00
2022-08-07T10:07:52.424Z,22542.00
2022-08-07T10:08:38.758Z,21613.00
2022-08-07T10:09:59.113Z,20799.00
2022-08-07T10:11:16.439Z,20208.00
2022-08-07T10:12:02.664Z,19930.00
2022-08-07T10:12:39.967Z,20543.00
2022-08-07T10:14:00.824Z,20766.00
2022-08-07T10:14:39.697Z,20256.00
2022-08-07T10:15:44.372Z,19365.00
2022-08-07T10:16:38.680Z,17867.00
2022-08-07T10:18:00.679Z,18075.00
2022-08-07T10:18:39.658Z,20101.00
2022-08-07T10:19:38.793Z,27438.00
2022-08-07T10:20:38.638Z,22962.00
2022-08-07T10:22:12.632Z,22478.00
2022-08-07T10:22:39.616Z,22354.00
2022-08-07T10:24:04.907Z,20890.00
2022-08-07T10:24:39.930Z,21399.00
2022-08-07T10:25:42.860Z,20766.00
2022-08-07T10:26:38.583Z,19369.00
2022-08-07T10:27:46.174Z,19794.00
2022-08-07T10:28:38.554Z,22795.00
2022-08-07T10:29:43.340Z,24172.00
2022-08-07T10:30:38.526Z,21163.00
2022-08-07T10:31:39.284Z,20056.00
2022-08-07T10:32:52.803Z,19901.00
2022-08-07T10:34:07.028Z,19135.00
2022-08-07T10:34:39.505Z,18358.00
2022-08-07T10:35:55.229Z,17859.00
2022-08-07T10:36:39.476Z,18060.00
2022-08-07T10:38:00.213Z,17783.00
2022-08-07T10:38:48.301Z,17571.00
2022-08-07T10:39:42.176Z,17043.00
2022-08-07T10:40:42.428Z,16853.00
2022-08-07T10:41:47.193Z,16976.00
2022-08-07T10:42:39.414Z,17551.00
2022-08-07T10:43:38.389Z,18241.00
2022-08-07T10:44:39.164Z,18341.00
2022-08-07T10:45:44.660Z,18012.00
2022-08-07T10:46:39.364Z,17876.00
2022-08-07T10:47:53.519Z,17361.00
2022-08-07T10:48:39.352Z,15964.00
2022-08-07T10:49:49.646Z,14778.00
2022-08-07T10:50:38.329Z,14882.00
2022-08-07T10:51:39.518Z,16088.00
2022-08-07T10:52:40.090Z,16410.00
2022-08-07T10:53:44.543Z,16367.00
2022-08-07T10:54:38.275Z,14537.00
2022-08-07T10:55:42.265Z,12831.00
2022-08-07T10:56:38.272Z,11103.00
2022-08-07T10:57:38.431Z,9778.00
2022-08-07T10:58:40.624Z,9281.00
2022-08-07T10:59:38.225Z,9619.00
2022-08-07T11:00:39.484Z,10333.00
2022-08-07T11:01:51.605Z,9795.00
2022-08-07T11:02:38.256Z,9022.00
2022-08-07T11:03:55.095Z,9188.00
2022-08-07T11:04:39.238Z,9458.00
2022-08-07T11:05:50.573Z,9673.00
2022-08-07T11:06:38.159Z,10235.00
2022-08-07T11:07:58.526Z,10263.00
2022-08-07T11:08:39.196Z,9346.00
2022-08-07T11:10:09.433Z,9264.00
2022-08-07T11:10:42.145Z,9386.00
2022-08-07T11:11:39.161Z,10261.00
2022-08-07T11:12:38.100Z,11041.00
2022-08-07T11:14:43.555Z,12380.00
2022-08-07T11:14:44.215Z,13907.00
2022-08-07T11:15:39.065Z,14148.00
2022-08-07T11:16:39.065Z,13138.00
2022-08-07T11:17:43.512Z,12044.00
2022-08-07T11:18:38.035Z,11362.00
2022-08-07T11:19:38.014Z,11669.00
2022-08-07T11:20:38.002Z,13281.00
2022-08-07T11:21:40.741Z,15270.00
2022-08-07T11:22:45.645Z,15694.00
2022-08-07T11:23:38.649Z,15931.00
2022-08-07T11:24:37.966Z,16171.00
2022-08-07T11:25:42.152Z,16632.00
2022-08-07T11:26:38.657Z,16491.00
2022-08-07T11:28:01.292Z,15541.00
2022-08-07T11:28:38.944Z,15584.00
2022-08-07T11:29:41.102Z,15882.00
2022-08-07T11:30:41.764Z,16178.00
2022-08-07T11:31:37.902Z,15434.00
2022-08-07T11:32:40.507Z,15661.00
2022-08-07T11:33:59.356Z,15976.00
2022-08-07T11:34:40.919Z,15260.00
2022-08-07T11:35:59.591Z,15395.00
2022-08-07T11:36:38.840Z,16182.00
2022-08-07T11:37:57.282Z,15621.00
2022-08-07T11:38:38.846Z,14893.00
2022-08-07T11:39:59.481Z,14441.00
2022-08-07T11:40:41.820Z,14593.00
2022-08-07T11:42:02.340Z,14568.00
2022-08-07T11:42:38.790Z,14293.00
2022-08-07T11:43:54.336Z,14148.00
2022-08-07T11:44:38.762Z,14834.00
2022-08-07T11:45:37.757Z,15396.00
2022-08-07T11:46:38.744Z,16127.00
2022-08-07T11:47:38.531Z,16828.00
2022-08-07T11:48:38.743Z,16664.00
2022-08-07T11:50:30.040Z,16445.00
2022-08-07T11:50:44.304Z,16204.00
2022-08-07T11:51:41.500Z,15890.00
2022-08-07T11:52:37.947Z,15307.00
2022-08-07T11:53:37.672Z,15256.00
2022-08-07T11:54:38.657Z,15179.00
2022-08-07T11:56:25.167Z,15193.00
2022-08-07T11:56:38.645Z,15549.00
2022-08-07T11:57:59.443Z,14957.00
2022-08-07T11:58:38.660Z,14729.00
2022-08-07T12:00:10.682Z,16039.00
2022-08-07T12:00:38.588Z,16249.00
2022-08-07T12:02:00.094Z,17299.00
2022-08-07T12:02:38.735Z,17967.00
2022-08-07T12:03:44.366Z,15555.00
2022-08-07T12:04:37.547Z,15534.00
2022-08-07T12:05:41.630Z,14417.00
2022-08-07T12:06:40.294Z,13638.00
2022-08-07T12:07:39.313Z,14235.00
2022-08-07T12:08:38.511Z,16010.00
2022-08-07T12:09:37.508Z,17307.00
2022-08-07T12:10:41.899Z,15223.00
2022-08-07T12:11:43.443Z,13012.00
2022-08-07T12:12:38.461Z,11742.00
2022-08-07T12:13:40.042Z,10855.00
2022-08-07T12:14:37.443Z,10263.00
2022-08-07T12:16:05.469Z,9916.00
2022-08-07T12:16:38.443Z,10235.00
2022-08-07T12:17:37.668Z,11043.00
2022-08-07T12:18:38.407Z,12381.00
2022-08-07T12:20:02.567Z,13729.00
2022-08-07T12:20:38.389Z,15641.00
2022-08-07T12:21:55.987Z,17073.00
2022-08-07T12:22:47.361Z,16820.00
2022-08-07T12:24:05.343Z,17432.00